Time;durP1;ratioP1;P1;durP2;ratioP2;P2;SDS_P1;SDS_P2;PMS_P1;PMS_P2;Temp;Humidity;BMP_temperature;BMP_pressure;BME280_temperature;BME280_humidity;BME280_pressure;Samples;Min_cycle;Max_cycle;Signal;HPM_P1;HPM_P2
2023/01/28 00:01:48;;;;;;;8.13;7.32;;;2.40;99.90;;;;;;5111688;28;20050;-70
2023/01/28 00:04:14;;;;;;;7.97;7.18;;;2.40;99.90;;;;;;5093665;28;20044;-64
2023/01/28 00:06:39;;;;;;;8.02;7.22;;;2.60;99.90;;;;;;5112169;28;20112;-66
2023/01/28 00:09:05;;;;;;;8.88;7.32;;;2.40;99.90;;;;;;5111050;28;20043;-65
2023/01/28 00:11:31;;;;;;;8.10;7.30;;;2.50;99.90;;;;;;5111978;28;20088;-65
2023/01/28 00:13:57;;;;;;;8.80;7.90;;;2.50;99.90;;;;;;5111634;28;20074;-65
2023/01/28 00:16:22;;;;;;;8.40;7.53;;;2.50;99.90;;;;;;5111839;28;20132;-66
2023/01/28 00:18:48;;;;;;;7.53;6.30;;;2.50;99.90;;;;;;5093617;28;20048;-70
2023/01/28 00:21:14;;;;;;;8.57;6.82;;;2.50;99.90;;;;;;5111825;28;20054;-65
2023/01/28 00:23:42;;;;;;;9.98;6.20;;;2.50;99.90;;;;;;5094056;28;20401;-65
2023/01/28 00:26:13;;;;;;;6.93;5.60;;;2.50;99.90;;;;;;5076365;28;20089;-67
2023/01/28 00:28:40;;;;;;;8.60;6.10;;;2.40;99.90;;;;;;5111928;28;20051;-65
2023/01/28 00:31:26;;;;;;;7.50;6.50;;;2.40;99.90;;;;;;5111499;28;20054;-65
2023/01/28 00:33:54;;;;;;;7.90;6.38;;;2.40;99.90;;;;;;5111210;28;20058;-69
2023/01/28 00:36:22;;;;;;;7.20;6.50;;;2.50;99.90;;;;;;5111934;28;20046;-65
2023/01/28 00:38:56;;;;;;;7.97;6.18;;;2.60;99.90;;;;;;5111993;28;20163;-65
2023/01/28 00:41:26;;;;;;;8.30;5.90;;;2.40;99.90;;;;;;5093792;28;20053;-65
2023/01/28 00:43:52;;;;;;;5.68;4.78;;;2.40;99.90;;;;;;5077591;28;20060;-65
2023/01/28 00:46:19;;;;;;;5.97;5.22;;;2.40;99.90;;;;;;5111534;28;20079;-66
2023/01/28 00:48:46;;;;;;;7.13;5.90;;;2.40;99.90;;;;;;5093923;28;20052;-67
2023/01/28 00:51:16;;;;;;;7.13;6.00;;;2.40;99.90;;;;;;5093190;28;20048;-65
2023/01/28 00:53:42;;;;;;;7.32;6.28;;;2.50;99.90;;;;;;5096308;28;20040;-65
2023/01/28 00:56:11;;;;;;;7.53;6.13;;;2.50;99.90;;;;;;5115712;28;20055;-65
2023/01/28 00:58:36;;;;;;;6.75;5.35;;;2.50;99.90;;;;;;5115921;28;20059;-66
2023/01/28 01:01:23;;;;;;;6.57;4.72;;;2.50;99.90;;;;;;5115452;28;20477;-65
2023/01/28 01:04:01;;;;;;;5.30;4.15;;;2.50;99.90;;;;;;5097258;28;20044;-64
2023/01/28 01:06:34;;;;;;;4.45;3.95;;;3.20;99.90;;;;;;5097559;28;20047;-68
2023/01/28 01:09:00;;;;;;;5.80;3.78;;;2.50;99.90;;;;;;5064586;28;20046;-66
2023/01/28 01:11:25;;;;;;;5.00;4.07;;;2.40;99.90;;;;;;5115670;28;20044;-68
2023/01/28 01:13:56;;;;;;;6.13;3.75;;;2.40;99.90;;;;;;5097095;28;20044;-66
2023/01/28 01:16:24;;;;;;;5.82;4.10;;;2.40;99.90;;;;;;5115159;28;20066;-65
2023/01/28 01:18:51;;;;;;;6.53;4.00;;;2.40;99.90;;;;;;5114685;28;20039;-64
2023/01/28 01:21:20;;;;;;;5.47;4.38;;;2.50;99.90;;;;;;5115031;28;20746;-66
2023/01/28 01:23:46;;;;;;;7.47;4.47;;;2.40;99.90;;;;;;5097002;28;20044;-64
2023/01/28 01:26:12;;;;;;;5.72;3.78;;;2.40;99.90;;;;;;5114249;28;20051;-66
2023/01/28 01:28:38;;;;;;;4.53;3.90;;;2.40;99.90;;;;;;5096920;28;20151;-66
2023/01/28 01:31:12;;;;;;;4.65;4.15;;;2.40;99.90;;;;;;5114794;28;20040;-65
2023/01/28 01:33:38;;;;;;;7.47;4.15;;;2.50;99.90;;;;;;5080713;28;20088;-65
2023/01/28 01:36:04;;;;;;;5.80;4.20;;;2.50;99.90;;;;;;5114721;28;20135;-67
2023/01/28 01:38:30;;;;;;;4.10;3.50;;;2.40;99.90;;;;;;5096588;28;20048;-65
2023/01/28 01:40:58;;;;;;;5.88;4.15;;;2.40;99.90;;;;;;5079869;28;20100;-66
2023/01/28 01:43:24;;;;;;;4.65;4.03;;;2.40;99.90;;;;;;5114286;28;20052;-66
2023/01/28 01:45:57;;;;;;;5.38;4.20;;;2.40;99.90;;;;;;5114966;28;20046;-65
2023/01/28 01:48:33;;;;;;;5.65;4.25;;;2.40;99.90;;;;;;5096623;28;20051;-65
2023/01/28 01:51:09;;;;;;;5.28;4.03;;;2.40;99.90;;;;;;5096922;28;20397;-66
2023/01/28 01:53:38;;;;;;;5.22;4.10;;;2.40;99.90;;;;;;5114880;28;20122;-66
2023/01/28 01:56:08;;;;;;;4.55;3.95;;;2.40;99.90;;;;;;5114253;28;20050;-69
2023/01/28 01:58:38;;;;;;;5.03;4.20;;;2.40;99.90;;;;;;5114559;28;20059;-65
2023/01/28 02:01:04;;;;;;;5.75;4.45;;;2.40;99.90;;;;;;5096074;28;20074;-71
2023/01/28 02:03:58;;;;;;;5.82;4.50;;;2.40;99.90;;;;;;5114220;28;20392;-65
2023/01/28 02:06:25;;;;;;;5.30;4.45;;;2.40;99.90;;;;;;5095256;28;20216;-64
2023/01/28 02:08:54;;;;;;;4.85;4.30;;;2.40;99.90;;;;;;5096207;28;20370;-68
2023/01/28 02:11:20;;;;;;;6.05;3.95;;;2.50;99.90;;;;;;5095905;28;20388;-65
2023/01/28 02:13:50;;;;;;;5.78;4.55;;;2.80;99.90;;;;;;5096597;28;20128;-65
2023/01/28 02:16:16;;;;;;;5.43;4.10;;;2.50;99.90;;;;;;5113815;28;20082;-65
2023/01/28 02:18:42;;;;;;;5.32;4.25;;;2.50;99.90;;;;;;5079418;28;20051;-65
2023/01/28 02:21:36;;;;;;;5.65;4.40;;;2.50;99.90;;;;;;5113862;28;20134;-69
2023/01/28 02:24:20;;;;;;;5.45;4.13;;;2.50;99.90;;;;;;5114107;28;20053;-66
2023/01/28 02:26:49;;;;;;;5.07;4.22;;;2.50;99.90;;;;;;5113734;28;20039;-65
2023/01/28 02:29:19;;;;;;;5.85;4.40;;;2.50;99.90;;;;;;5113374;28;20048;-65
2023/01/28 02:31:51;;;;;;;6.93;4.32;;;2.50;99.90;;;;;;5114016;28;20044;-65
2023/01/28 02:34:39;;;;;;;5.25;4.50;;;2.50;99.90;;;;;;5113763;28;20069;-65
2023/01/28 02:37:35;;;;;;;6.00;4.40;;;2.50;99.90;;;;;;5114164;28;20047;-63
2023/01/28 02:40:10;;;;;;;5.38;4.13;;;2.50;99.90;;;;;;5095697;28;20044;-66
2023/01/28 02:42:37;;;;;;;;;;;2.50;99.90;;;;;;5114289;28;20087;-65
2023/01/28 02:45:15;;;;;;;6.63;4.03;;;2.50;99.90;;;;;;5113753;28;19925;-65
2023/01/28 02:47:59;;;;;;;5.00;4.10;;;2.50;99.90;;;;;;5113392;28;20063;-65
2023/01/28 02:50:33;;;;;;;5.32;4.07;;;2.50;99.90;;;;;;5113490;28;20054;-65
2023/01/28 02:56:13;;;;;;;4.53;3.78;;;2.50;99.90;;;;;;5113232;28;20453;-65
2023/01/28 02:58:52;;;;;;;4.72;3.60;;;2.50;99.90;;;;;;5113506;28;20044;-65
2023/01/28 03:01:28;;;;;;;6.13;3.58;;;2.50;99.90;;;;;;5095227;28;20048;-65
2023/01/28 03:03:54;;;;;;;4.88;3.47;;;2.50;99.90;;;;;;5113514;28;20039;-66
2023/01/28 03:06:25;;;;;;;6.78;4.53;;;2.50;99.90;;;;;;5112883;28;20599;-65
2023/01/28 03:37:04;;;;;;;4.88;3.95;;;2.60;99.90;;;;;;5113028;28;20043;-65
2023/01/28 03:39:29;;;;;;;5.38;4.18;;;2.60;99.90;;;;;;5112236;28;20047;-65
2023/01/28 03:41:56;;;;;;;6.50;4.35;;;2.60;99.90;;;;;;5112373;28;20097;-65
2023/01/28 03:47:10;;;;;;;5.72;3.80;;;2.60;99.90;;;;;;5079645;28;20051;-66
2023/01/28 03:49:38;;;;;;;4.30;3.15;;;2.60;99.90;;;;;;5111165;28;20489;-65
2023/01/28 03:52:04;;;;;;;4.75;3.70;;;2.60;99.90;;;;;;5112384;28;20039;-65
2023/01/28 03:54:29;;;;;;;6.50;4.25;;;2.60;99.90;;;;;;5093871;28;20396;-65
2023/01/28 03:56:55;;;;;;;5.70;3.83;;;2.60;99.90;;;;;;5112398;28;20086;-65
2023/01/28 03:59:21;;;;;;;6.70;5.13;;;2.60;99.90;;;;;;5111912;28;20036;-66
2023/01/28 04:01:49;;;;;;;5.40;4.30;;;2.60;99.90;;;;;;5112405;28;20044;-65
2023/01/28 04:04:22;;;;;;;6.18;4.18;;;2.60;99.90;;;;;;5112362;28;20503;-65
2023/01/28 04:06:51;;;;;;;6.65;4.47;;;2.60;99.90;;;;;;5112391;28;20055;-65
2023/01/28 04:09:17;;;;;;;5.63;4.60;;;2.60;99.90;;;;;;5094301;28;20047;-65
2023/01/28 04:11:43;;;;;;;6.80;4.75;;;2.60;99.90;;;;;;5111808;28;20390;-65
2023/01/28 04:14:08;;;;;;;5.38;4.60;;;2.60;99.90;;;;;;5112183;28;20053;-65
2023/01/28 04:16:34;;;;;;;6.85;4.53;;;2.60;99.90;;;;;;5111744;28;20127;-65
2023/01/28 04:19:00;;;;;;;5.55;4.32;;;2.60;99.90;;;;;;5112007;28;20043;-64
2023/01/28 04:21:25;;;;;;;6.03;4.30;;;2.60;99.90;;;;;;5111612;28;20110;-64
2023/01/28 04:23:51;;;;;;;6.28;4.47;;;2.60;99.90;;;;;;5112056;28;20114;-63
2023/01/28 04:26:17;;;;;;;5.68;4.30;;;2.60;99.90;;;;;;5093619;28;20166;-64
2023/01/28 04:28:42;;;;;;;7.47;4.53;;;2.60;99.90;;;;;;5111853;28;20175;-63
2023/01/28 04:31:09;;;;;;;5.13;4.18;;;;;;;;;;5112055;28;20047;-64
2023/01/28 04:33:35;;;;;;;5.32;4.00;;;;;;;;;;5111479;28;20046;-65
2023/01/28 04:36:00;;;;;;;6.63;4.38;;;2.60;99.90;;;;;;5111924;28;20040;-64
2023/01/28 04:38:26;;;;;;;5.75;4.25;;;2.50;99.90;;;;;;5093191;28;20089;-65
2023/01/28 04:40:52;;;;;;;6.22;4.60;;;2.50;99.90;;;;;;5111599;28;20489;-64
2023/01/28 04:43:19;;;;;;;4.95;4.40;;;2.70;99.90;;;;;;5111457;28;20545;-64
2023/01/28 04:45:48;;;;;;;5.95;4.25;;;2.50;99.90;;;;;;5111294;28;20119;-64
2023/01/28 04:48:15;;;;;;;7.63;4.20;;;2.70;99.90;;;;;;5111206;28;20127;-64
2023/01/28 04:50:42;;;;;;;6.65;4.50;;;2.50;99.90;;;;;;5111446;28;20035;-65
2023/01/28 04:53:08;;;;;;;6.78;4.68;;;2.70;99.90;;;;;;5111754;28;20055;-64
2023/01/28 04:55:33;;;;;;;6.90;5.05;;;2.50;99.90;;;;;;5111293;28;20048;-64
2023/01/28 04:57:59;;;;;;;7.90;5.00;;;2.50;99.90;;;;;;5093353;28;20044;-64
2023/01/28 05:00:25;;;;;;;6.20;4.90;;;2.50;99.90;;;;;;5111833;28;20047;-64
2023/01/28 05:02:50;;;;;;;6.93;5.13;;;2.40;99.90;;;;;;5111332;28;20126;-64
2023/01/28 05:05:16;;;;;;;5.53;4.40;;;2.40;99.90;;;;;;5112042;28;20396;-64
2023/01/28 05:07:42;;;;;;;7.00;5.07;;;2.50;99.90;;;;;;5111068;28;20086;-64
2023/01/28 05:10:08;;;;;;;5.40;4.35;;;2.40;99.90;;;;;;5111445;28;20051;-64
2023/01/28 05:12:33;;;;;;;5.50;4.50;;;2.40;99.90;;;;;;5093017;28;20043;-64
2023/01/28 05:15:00;;;;;;;6.93;4.60;;;2.50;99.90;;;;;;5093707;28;20127;-64
2023/01/28 05:17:26;;;;;;;7.40;4.63;;;2.40;99.90;;;;;;5111094;28;20442;-65
2023/01/28 05:19:52;;;;;;;5.93;5.25;;;2.40;99.90;;;;;;5111117;28;20054;-64
2023/01/28 05:22:18;;;;;;;7.13;5.18;;;2.40;99.90;;;;;;5111535;28;20046;-64
2023/01/28 05:24:44;;;;;;;8.32;5.13;;;2.40;99.90;;;;;;5111080;28;20548;-64
2023/01/28 05:27:10;;;;;;;5.60;5.00;;;2.40;99.90;;;;;;5111600;28;20047;-64
2023/01/28 05:29:36;;;;;;;6.07;5.47;;;2.40;99.90;;;;;;5110921;28;20039;-65
2023/01/28 05:32:01;;;;;;;6.35;5.20;;;2.50;99.90;;;;;;5111615;28;20055;-64
2023/01/28 05:34:27;;;;;;;7.30;5.20;;;2.40;99.90;;;;;;5111332;28;20397;-64
2023/01/28 05:36:53;;;;;;;7.72;5.95;;;2.30;99.90;;;;;;5111018;28;20202;-64
2023/01/28 05:39:18;;;;;;;7.30;4.88;;;2.50;99.90;;;;;;5113022;28;20039;-64
2023/01/28 05:41:44;;;;;;;7.32;5.20;;;2.40;99.90;;;;;;5114328;28;20047;-65
2023/01/28 05:44:10;;;;;;;5.88;5.28;;;2.40;99.90;;;;;;5114785;28;20077;-64
2023/01/28 05:46:35;;;;;;;7.72;5.90;;;2.40;99.90;;;;;;5096234;28;20091;-64
2023/01/28 05:49:01;;;;;;;7.10;5.65;;;2.40;99.90;;;;;;5114129;28;20050;-65
2023/01/28 05:51:27;;;;;;;7.07;5.85;;;2.40;99.90;;;;;;5114641;28;20039;-64
2023/01/28 05:53:52;;;;;;;7.30;5.82;;;2.40;99.90;;;;;;5114387;28;20465;-64
2023/01/28 05:56:18;;;;;;;6.30;5.68;;;2.40;99.90;;;;;;5114640;28;20044;-64
2023/01/28 05:58:44;;;;;;;6.22;5.63;;;2.50;99.90;;;;;;5094616;28;20044;-64
2023/01/28 06:01:09;;;;;;;7.88;5.88;;;2.30;99.90;;;;;;5114476;28;20055;-65
2023/01/28 06:03:35;;;;;;;7.90;5.90;;;2.30;99.90;;;;;;5045704;28;20040;-65
2023/01/28 06:06:01;;;;;;;7.65;5.90;;;2.30;99.90;;;;;;5114601;28;20107;-64
2023/01/28 06:08:26;;;;;;;6.47;5.60;;;2.30;99.90;;;;;;5114541;28;20139;-64
2023/01/28 06:10:52;;;;;;;7.93;6.30;;;2.30;99.90;;;;;;5114045;28;20055;-64
2023/01/28 06:13:18;;;;;;;9.65;6.60;;;2.30;99.90;;;;;;5114346;28;20111;-64
2023/01/28 06:15:43;;;;;;;7.45;6.55;;;2.40;99.90;;;;;;5113932;28;20109;-64
2023/01/28 06:18:09;;;;;;;7.47;6.78;;;2.30;99.90;;;;;;5114372;28;20048;-64
2023/01/28 06:20:35;;;;;;;7.63;6.70;;;2.30;99.90;;;;;;5113877;28;20092;-64
2023/01/28 06:23:00;;;;;;;9.27;7.13;;;2.30;99.90;;;;;;5113740;28;20126;-64
2023/01/28 06:25:26;;;;;;;8.25;7.18;;;2.30;99.90;;;;;;5114310;28;20044;-64
2023/01/28 06:27:52;;;;;;;7.85;7.00;;;2.30;99.90;;;;;;5113867;28;20039;-64
2023/01/28 06:30:17;;;;;;;7.50;6.78;;;2.30;99.90;;;;;;5095871;28;20054;-64
2023/01/28 06:32:43;;;;;;;7.68;6.80;;;2.30;99.90;;;;;;5095583;28;20043;-64
2023/01/28 06:35:09;;;;;;;8.90;8.00;;;2.30;99.90;;;;;;5113937;28;20051;-64
2023/01/28 06:37:35;;;;;;;11.10;8.27;;;2.20;99.90;;;;;;5114159;28;20048;-64
2023/01/28 06:40:01;;;;;;;8.90;7.38;;;2.30;99.90;;;;;;5113204;28;20036;-63
2023/01/28 06:42:27;;;;;;;9.15;8.00;;;2.30;99.90;;;;;;5113847;28;20135;-64
2023/01/28 06:44:53;;;;;;;9.52;8.45;;;2.30;99.90;;;;;;5113436;28;20126;-64
2023/01/28 06:47:20;;;;;;;9.35;8.43;;;2.30;99.90;;;;;;5113385;28;20048;-64
2023/01/28 06:49:45;;;;;;;12.38;9.70;;;2.20;99.90;;;;;;5095078;28;20048;-64
2023/01/28 06:52:11;;;;;;;10.18;8.32;;;2.30;99.90;;;;;;5113614;28;20040;-64
2023/01/28 06:54:37;;;;;;;11.00;9.60;;;2.20;99.90;;;;;;5113598;28;20128;-64
2023/01/28 06:57:03;;;;;;;10.93;8.82;;;2.20;99.90;;;;;;5094704;28;20044;-64
2023/01/28 06:59:28;;;;;;;9.45;8.45;;;2.20;99.90;;;;;;5078473;28;20047;-64
2023/01/28 07:01:54;;;;;;;8.80;7.95;;;2.20;99.90;;;;;;5094819;28;20054;-64
2023/01/28 07:04:19;;;;;;;9.43;7.90;;;2.20;99.90;;;;;;5113373;28;20512;-64
2023/01/28 07:06:45;;;;;;;8.65;7.75;;;2.20;99.90;;;;;;5113296;28;20096;-66
2023/01/28 07:09:11;;;;;;;8.73;7.80;;;2.20;99.90;;;;;;5095341;28;20044;-65
2023/01/28 07:11:36;;;;;;;8.60;7.63;;;2.30;99.90;;;;;;5113117;28;20047;-64
2023/01/28 07:14:02;;;;;;;9.80;7.72;;;2.20;99.90;;;;;;5112837;28;20040;-64
2023/01/28 07:16:28;;;;;;;9.55;8.07;;;2.20;99.90;;;;;;5113059;28;20086;-64
2023/01/28 07:18:53;;;;;;;10.90;8.05;;;2.30;99.90;;;;;;5112595;28;20047;-64
2023/01/28 07:21:19;;;;;;;9.30;8.32;;;2.10;99.90;;;;;;5112816;28;20044;-64
2023/01/28 07:23:45;;;;;;;8.95;7.35;;;2.10;99.90;;;;;;5112866;28;20050;-64
2023/01/28 07:26:10;;;;;;;10.80;8.15;;;2.00;99.90;;;;;;5093884;28;20534;-64
2023/01/28 07:28:36;;;;;;;9.18;8.07;;;2.00;99.90;;;;;;5112958;28;20504;-64
2023/01/28 07:31:02;;;;;;;8.77;7.68;;;2.30;99.90;;;;;;5112618;28;20057;-64
2023/01/28 07:33:28;;;;;;;9.63;8.27;;;1.90;99.90;;;;;;5112815;28;20047;-64
2023/01/28 07:35:53;;;;;;;9.02;8.05;;;1.90;99.90;;;;;;5112340;28;20048;-64
2023/01/28 07:38:19;;;;;;;9.23;8.32;;;1.80;99.90;;;;;;5112529;28;20043;-64
2023/01/28 07:40:45;;;;;;;9.15;8.20;;;2.10;99.90;;;;;;5094266;28;20401;-65
2023/01/28 07:43:11;;;;;;;9.73;8.68;;;2.00;99.90;;;;;;5111931;28;20051;-64
2023/01/28 07:45:37;;;;;;;10.27;8.00;;;1.70;99.90;;;;;;5112563;28;20043;-65
2023/01/28 07:48:05;;;;;;;8.98;8.07;;;2.30;99.90;;;;;;5112080;28;20052;-67
2023/01/28 07:50:33;;;;;;;9.63;8.65;;;1.70;99.90;;;;;;5112608;28;20040;-64
2023/01/28 07:53:03;;;;;;;9.68;8.63;;;1.80;99.90;;;;;;5112166;28;20044;-65
2023/01/28 07:55:29;;;;;;;9.50;8.25;;;1.60;99.90;;;;;;5112430;28;20051;-65
2023/01/28 07:57:59;;;;;;;10.32;8.90;;;1.60;99.90;;;;;;5112068;28;20154;-65
2023/01/28 08:00:27;;;;;;;13.70;9.35;;;1.60;99.90;;;;;;5112623;28;20032;-65
2023/01/28 08:02:58;;;;;;;10.13;9.13;;;1.60;99.90;;;;;;5111186;28;20481;-65
2023/01/28 08:05:25;;;;;;;10.63;9.48;;;1.60;99.90;;;;;;5094359;28;20389;-65
2023/01/28 08:07:52;;;;;;;9.95;8.95;;;1.60;99.90;;;;;;5112466;28;20043;-65
2023/01/28 08:10:18;;;;;;;10.63;9.52;;;1.60;99.90;;;;;;5112252;28;20088;-65
2023/01/28 08:12:55;;;;;;;10.52;9.05;;;1.60;99.90;;;;;;5112512;28;20087;-65
2023/01/28 08:15:21;;;;;;;11.75;9.60;;;1.60;99.90;;;;;;5112573;28;20124;-63
2023/01/28 08:17:47;;;;;;;9.55;8.55;;;1.60;99.90;;;;;;5112060;28;20110;-63
2023/01/28 08:20:13;;;;;;;10.25;9.05;;;2.20;99.90;;;;;;5093629;28;20044;-64
2023/01/28 08:22:39;;;;;;;9.35;8.40;;;1.70;99.90;;;;;;5112061;28;20130;-63
2023/01/28 08:25:05;;;;;;;10.23;8.52;;;1.80;99.90;;;;;;5111636;28;20153;-62
2023/01/28 08:27:31;;;;;;;9.98;8.43;;;1.80;99.90;;;;;;5094037;28;20044;-64
2023/01/28 08:29:56;;;;;;;9.63;7.80;;;1.90;99.90;;;;;;5111831;28;20044;-65
2023/01/28 08:32:22;;;;;;;8.55;7.65;;;2.10;99.90;;;;;;5112079;28;20085;-65
2023/01/28 08:34:48;;;;;;;11.25;7.45;;;2.00;99.90;;;;;;5112058;28;20130;-64
2023/01/28 08:37:13;;;;;;;8.15;7.32;;;2.10;99.90;;;;;;5093652;28;20051;-64
2023/01/28 08:39:39;;;;;;;10.20;7.28;;;2.20;99.90;;;;;;5093712;28;20042;-64
2023/01/28 08:42:06;;;;;;;8.18;7.38;;;2.20;99.90;;;;;;5111332;28;20079;-64
2023/01/28 08:44:32;;;;;;;7.55;6.75;;;2.20;99.90;;;;;;5111982;28;20086;-64
2023/01/28 08:46:58;;;;;;;9.43;7.47;;;2.20;99.90;;;;;;5111105;28;20136;-65
2023/01/28 08:49:23;;;;;;;8.15;7.10;;;2.10;99.90;;;;;;5076737;28;20044;-64
2023/01/28 08:51:49;;;;;;;10.88;7.28;;;2.00;99.90;;;;;;5111859;28;20180;-65
2023/01/28 08:54:15;;;;;;;8.80;7.43;;;2.00;99.90;;;;;;5111525;28;20394;-65
2023/01/28 08:56:44;;;;;;;8.90;8.00;;;2.00;99.90;;;;;;5111945;28;20198;-65
2023/01/28 08:59:10;;;;;;;8.38;7.45;;;2.00;99.90;;;;;;5111511;28;20050;-62
2023/01/28 09:01:36;;;;;;;9.50;7.32;;;2.00;99.90;;;;;;5093308;28;20168;-63
2023/01/28 09:04:02;;;;;;;8.25;6.88;;;2.00;99.90;;;;;;5093174;28;20058;-64
2023/01/28 09:06:28;;;;;;;8.27;7.10;;;2.20;99.90;;;;;;5093641;28;20054;-63
2023/01/28 09:08:56;;;;;;;7.68;6.88;;;2.00;99.90;;;;;;5111689;28;20040;-63
2023/01/28 09:11:22;;;;;;;10.32;7.25;;;2.40;99.90;;;;;;5111344;28;20043;-63
2023/01/28 09:13:48;;;;;;;7.85;7.05;;;2.00;99.90;;;;;;5112572;28;20044;-63
2023/01/28 09:16:13;;;;;;;7.90;7.10;;;2.00;99.90;;;;;;5115190;28;20126;-63
2023/01/28 09:18:40;;;;;;;7.65;6.93;;;2.10;99.90;;;;;;5115837;28;20554;-63
2023/01/28 09:21:06;;;;;;;7.80;6.80;;;2.10;99.90;;;;;;5097012;28;20113;-65
2023/01/28 09:23:38;;;;;;;7.82;6.85;;;2.20;99.90;;;;;;5115587;28;20085;-63
2023/01/28 09:26:05;;;;;;;7.40;6.50;;;2.30;99.90;;;;;;5097155;28;20112;-64
2023/01/28 09:28:32;;;;;;;7.88;6.68;;;2.40;99.90;;;;;;5115408;28;20090;-63
2023/01/28 09:31:06;;;;;;;9.23;6.30;;;2.60;99.90;;;;;;5115325;28;20131;-64
2023/01/28 09:33:33;;;;;;;7.30;6.50;;;2.80;99.90;;;;;;5097298;28;20069;-63
2023/01/28 09:36:00;;;;;;;7.22;6.05;;;2.90;99.90;;;;;;5115284;28;20281;-63
2023/01/28 09:38:26;;;;;;;7.55;5.93;;;3.10;99.90;;;;;;5114784;28;20036;-64
2023/01/28 09:40:52;;;;;;;6.90;6.20;;;3.20;99.90;;;;;;5115169;28;20046;-64
2023/01/28 09:43:41;;;;;;;7.70;6.20;;;3.30;99.90;;;;;;5080017;28;20108;-64
2023/01/28 09:46:12;;;;;;;6.93;6.22;;;3.40;99.90;;;;;;5114934;28;20077;-65
2023/01/28 09:48:42;;;;;;;7.13;5.68;;;3.50;99.90;;;;;;5114719;28;20429;-64
2023/01/28 09:51:35;;;;;;;8.63;6.50;;;3.60;99.90;;;;;;5114877;28;20043;-64
2023/01/28 09:54:33;;;;;;;7.00;5.80;;;3.60;99.90;;;;;;5115116;28;20532;-63
2023/01/28 09:57:10;;;;;;;9.88;6.18;;;3.60;99.90;;;;;;5114986;28;20043;-63
2023/01/28 09:59:36;;;;;;;7.78;6.43;;;3.60;99.90;;;;;;5114832;28;20463;-63
2023/01/28 10:02:15;;;;;;;7.68;6.03;;;3.50;99.90;;;;;;5114743;28;20048;-64
2023/01/28 10:05:13;;;;;;;7.80;6.10;;;3.60;99.90;;;;;;5114876;28;20412;-64
2023/01/28 10:07:56;;;;;;;9.13;6.25;;;3.70;99.90;;;;;;5097966;28;20081;-64
2023/01/28 10:10:45;;;;;;;7.93;6.13;;;3.80;99.90;;;;;;5114233;28;20089;-63
2023/01/28 10:13:29;;;;;;;6.68;5.97;;;3.80;99.90;;;;;;5096115;28;20043;-65
2023/01/28 10:16:34;;;;;;;8.15;6.53;;;3.80;99.90;;;;;;5114486;28;20048;-65
2023/01/28 10:19:02;;;;;;;7.72;5.65;;;3.90;99.90;;;;;;5114621;28;20044;-65
2023/01/28 10:21:53;;;;;;;8.02;5.65;;;4.00;99.90;;;;;;5079209;28;20496;-65
2023/01/28 10:24:25;;;;;;;8.13;5.72;;;4.10;99.90;;;;;;5113755;28;20068;-64
2023/01/28 10:26:51;;;;;;;6.82;5.68;;;4.20;99.90;;;;;;5096463;28;20050;-64
2023/01/28 10:29:20;;;;;;;8.27;5.68;;;4.40;99.90;;;;;;5078923;28;20040;-64
2023/01/28 10:32:02;;;;;;;8.55;6.22;;;4.60;99.90;;;;;;5114281;28;20048;-64
2023/01/28 10:34:28;;;;;;;8.05;5.28;;;4.80;99.90;;;;;;5113719;28;20476;-64
2023/01/28 10:36:56;;;;;;;9.77;5.30;;;4.80;99.90;;;;;;5114258;28;20064;-64
2023/01/28 10:39:24;;;;;;;6.88;5.38;;;4.80;99.90;;;;;;5113686;28;20549;-64
2023/01/28 10:41:50;;;;;;;8.95;5.95;;;4.80;99.90;;;;;;5113608;28;20051;-64
2023/01/28 10:44:25;;;;;;;9.27;6.10;;;4.80;99.90;;;;;;5107675;28;20130;-64
2023/01/28 10:46:52;;;;;;;7.40;5.20;;;4.80;99.90;;;;;;5113343;28;20132;-64
2023/01/28 10:49:24;;;;;;;11.23;5.90;;;4.90;99.90;;;;;;5113453;28;20378;-64
2023/01/28 10:51:49;;;;;;;7.07;5.25;;;4.90;99.90;;;;;;5113868;28;20412;-64
2023/01/28 10:54:20;;;;;;;6.85;5.28;;;4.90;99.90;;;;;;5095277;28;20135;-64
2023/01/28 10:56:49;;;;;;;9.70;5.95;;;4.90;99.90;;;;;;5113630;28;20129;-64
2023/01/28 10:59:25;;;;;;;10.77;5.60;;;5.00;99.90;;;;;;5113158;28;20481;-64
2023/01/28 11:01:58;;;;;;;8.02;5.60;;;5.00;99.90;;;;;;5113895;28;20469;-65
2023/01/28 11:04:29;;;;;;;8.18;5.88;;;5.00;99.90;;;;;;5113294;28;20396;-64
2023/01/28 11:07:00;;;;;;;9.02;5.93;;;5.10;99.90;;;;;;5113332;28;20050;-64
2023/01/28 11:09:36;;;;;;;8.57;5.97;;;5.20;99.90;;;;;;5113250;28;20040;-67
2023/01/28 11:12:17;;;;;;;9.80;6.18;;;5.20;99.90;;;;;;5113416;28;20469;-64
2023/01/28 11:14:53;;;;;;;11.73;5.68;;;5.20;99.90;;;;;;5078661;28;20065;-64
2023/01/28 11:17:23;;;;;;;7.38;5.28;;;5.10;99.90;;;;;;5112973;28;20100;-65
2023/01/28 11:19:52;;;;;;;6.80;5.05;;;5.10;99.90;;;;;;5112777;28;20096;-64
2023/01/28 11:22:31;;;;;;;7.60;5.88;;;5.10;99.90;;;;;;5095200;28;20057;-65
2023/01/28 11:24:58;;;;;;;10.02;5.95;;;5.10;99.90;;;;;;5112737;28;20083;-64
2023/01/28 11:27:29;;;;;;;9.82;6.30;;;5.10;99.90;;;;;;5112387;28;20401;-64
2023/01/28 11:30:03;;;;;;;8.27;6.18;;;5.10;99.90;;;;;;5112699;28;20047;-63
2023/01/28 11:32:32;;;;;;;11.55;6.03;;;5.10;99.90;;;;;;5112893;28;20066;-64
2023/01/28 11:34:59;;;;;;;8.82;6.28;;;5.10;99.90;;;;;;5112807;28;20373;-64
2023/01/28 11:37:27;;;;;;;6.70;5.55;;;5.10;99.90;;;;;;5111805;28;20092;-64
2023/01/28 11:40:01;;;;;;;8.20;6.05;;;5.20;99.90;;;;;;5094542;28;20048;-64
2023/01/28 11:42:27;;;;;;;8.07;5.35;;;5.10;99.90;;;;;;5112497;28;20405;-64
2023/01/28 11:44:53;;;;;;;12.30;5.90;;;5.10;99.90;;;;;;5093953;28;20039;-62
2023/01/28 11:47:29;;;;;;;8.52;6.18;;;5.10;99.90;;;;;;5111921;28;20079;-62
2023/01/28 11:50:29;;;;;;;9.48;6.20;;;5.10;99.90;;;;;;5112401;28;20091;-64
2023/01/28 11:53:10;;;;;;;7.80;5.75;;;5.10;99.90;;;;;;5080832;28;20146;-63
2023/01/28 11:56:03;;;;;;;9.32;6.13;;;5.10;99.90;;;;;;5112095;28;20048;-63
2023/01/28 11:58:41;;;;;;;9.82;6.10;;;5.10;99.90;;;;;;5112161;28;20049;-63
2023/01/28 12:01:35;;;;;;;8.27;6.45;;;5.10;99.90;;;;;;5111826;28;20127;-63
2023/01/28 12:04:22;;;;;;;9.40;6.22;;;5.10;99.90;;;;;;5112495;28;20047;-62
2023/01/28 12:06:52;;;;;;;8.98;6.35;;;5.10;99.90;;;;;;5112289;28;20048;-62
2023/01/28 12:09:42;;;;;;;6.93;5.28;;;5.10;99.90;;;;;;5112271;28;20400;-62
2023/01/28 12:12:16;;;;;;;9.20;6.55;;;5.00;99.90;;;;;;5093885;28;20135;-63
2023/01/28 12:14:48;;;;;;;9.55;6.43;;;4.90;99.90;;;;;;5093350;28;20078;-63
2023/01/28 12:17:51;;;;;;;9.23;6.43;;;4.90;99.90;;;;;;5094162;28;20051;-63
2023/01/28 12:20:41;;;;;;;13.15;8.27;;;4.80;99.90;;;;;;5112109;28;20126;-64
2023/01/28 12:23:45;;;;;;;9.68;6.72;;;4.90;99.90;;;;;;5112671;28;20384;-63
2023/01/28 12:26:20;;;;;;;7.85;5.78;;;4.90;99.90;;;;;;5112193;28;20078;-63
2023/01/28 12:29:04;;;;;;;7.88;6.15;;;4.90;99.90;;;;;;5093722;28;20241;-63
2023/01/28 12:31:53;;;;;;;9.25;7.07;;;4.80;99.90;;;;;;5093818;28;20047;-63
2023/01/28 12:34:41;;;;;;;9.13;6.90;;;4.90;99.90;;;;;;5112245;28;20048;-62
2023/01/28 12:37:32;;;;;;;12.27;7.25;;;4.90;99.90;;;;;;5094318;28;20131;-63
2023/01/28 12:40:28;;;;;;;8.55;7.05;;;5.00;99.90;;;;;;5111869;28;20434;-64
2023/01/28 12:43:10;;;;;;;11.75;7.28;;;5.00;99.90;;;;;;5094109;28;20392;-63
2023/01/28 12:45:44;;;;;;;12.05;6.80;;;5.00;99.90;;;;;;5111595;28;20136;-64
2023/01/28 12:48:29;;;;;;;8.15;5.72;;;5.00;99.90;;;;;;5113033;28;20138;-63
2023/01/28 12:51:27;;;;;;;10.77;7.00;;;5.20;99.90;;;;;;5098147;28;20115;-64
2023/01/28 12:53:56;;;;;;;9.68;7.00;;;5.20;99.90;;;;;;5110039;28;20056;-64
2023/01/28 12:56:32;;;;;;;11.63;7.25;;;5.20;99.90;;;;;;5098108;28;20128;-64
2023/01/28 12:59:20;;;;;;;11.82;6.78;;;5.20;99.90;;;;;;5116088;28;20052;-64
2023/01/28 13:02:14;;;;;;;10.60;6.90;;;5.20;99.90;;;;;;5115728;28;20047;-64
2023/01/28 13:05:03;;;;;;;9.32;6.75;;;5.20;99.90;;;;;;5115785;28;20051;-64
2023/01/28 13:07:37;;;;;;;9.13;6.60;;;5.30;99.90;;;;;;5116026;28;20481;-64
2023/01/28 13:10:06;;;;;;;9.43;6.63;;;5.40;99.90;;;;;;5098052;28;20369;-64
2023/01/28 13:12:33;;;;;;;7.55;5.82;;;5.40;99.90;;;;;;5115831;28;20051;-67
2023/01/28 13:15:00;;;;;;;9.32;6.50;;;5.50;99.90;;;;;;5115784;28;20139;-64
2023/01/28 13:17:31;;;;;;;9.27;6.38;;;5.50;99.90;;;;;;5115811;28;20141;-65
2023/01/28 13:19:58;;;;;;;9.32;6.35;;;5.50;99.90;;;;;;5115399;28;20081;-64
2023/01/28 13:22:35;;;;;;;9.48;6.22;;;5.60;99.90;;;;;;5115710;28;20044;-64
2023/01/28 13:25:22;;;;;;;9.98;5.80;;;5.60;99.90;;;;;;5115449;28;20126;-64
2023/01/28 13:28:00;;;;;;;10.38;6.18;;;5.60;99.90;;;;;;5115370;28;20123;-64
2023/01/28 13:30:28;;;;;;;9.63;6.00;;;5.60;99.90;;;;;;5115440;28;20528;-64
2023/01/28 13:33:00;;;;;;;10.18;6.53;;;5.50;99.90;;;;;;5115206;28;20468;-64
2023/01/28 13:35:38;;;;;;;12.48;6.45;;;5.50;99.90;;;;;;5115580;28;20279;-64
2023/01/28 13:38:23;;;;;;;10.95;6.53;;;5.50;99.90;;;;;;5115606;28;20086;-64
2023/01/28 13:41:00;;;;;;;10.68;6.68;;;5.50;99.90;;;;;;5115040;28;20359;-65
2023/01/28 13:43:37;;;;;;;10.02;6.65;;;5.50;99.90;;;;;;5115354;28;20058;-64
2023/01/28 13:46:10;;;;;;;11.05;6.53;;;5.60;99.90;;;;;;5115349;28;20047;-65
2023/01/28 13:48:44;;;;;;;9.63;6.30;;;5.60;99.90;;;;;;5114921;28;20056;-64